This is the latest recevied weather packets stored in our database for station/object K5DLF-13. If no packets are shown the sender has not sent any weather packets the latest 1 day(s).
| Time | Temp. | Humidity | Pressure | Rain* | Wind** | Luminosity | Snow |
|---|---|---|---|---|---|---|---|
| 1778030996 | 25° C | 91% | 1005.4 hPa | 0 mm | 0.89 m/s, 203° | 0 W/m² | - |
| 1778030696 | 25.56° C | 90% | 1005.3 hPa | 0 mm | 0.89 m/s, 203° | 0 W/m² | - |
| 1778030396 | 25.56° C | 90% | 1005.2 hPa | 0 mm | 1.34 m/s, 203° | 0 W/m² | - |
| 1778030096 | 25.56° C | 90% | 1005.1 hPa | 0 mm | 1.34 m/s, 204° | 0 W/m² | - |
| 1778029796 | 25.56° C | 90% | 1004.9 hPa | 0 mm | 1.34 m/s, 204° | 0 W/m² | - |
| 1778029496 | 25.56° C | 90% | 1004.9 hPa | 0 mm | 0.89 m/s, 204° | 0 W/m² | - |
| 1778029197 | 25.56° C | 90% | 1004.8 hPa | 0 mm | 0.89 m/s, 205° | 0 W/m² | - |
| 1778028896 | 25.56° C | 89% | 1004.8 hPa | 0 mm | 0.89 m/s, 185° | 0 W/m² | - |
| 1778028596 | 25.56° C | 89% | 1004.8 hPa | 0 mm | 0.89 m/s, 186° | 0 W/m² | - |
| 1778028296 | 25.56° C | 89% | 1004.8 hPa | 0 mm | 0.89 m/s, 192° | 7 W/m² | - |
| 1778027996 | 25.56° C | 89% | 1004.7 hPa | 0 mm | 0.89 m/s, 192° | 9 W/m² | - |
| 1778027696 | 25.56° C | 89% | 1004.7 hPa | 0 mm | 0.89 m/s, 192° | 9 W/m² | - |
| 1778027397 | 25.56° C | 89% | 1004.7 hPa | 0 mm | 0.89 m/s, 194° | 7 W/m² | - |
| 1778027097 | 26.11° C | 89% | 1004.7 hPa | 0 mm | 0.89 m/s, 194° | 14 W/m² | - |
| 1778026797 | 26.11° C | 89% | 1004.6 hPa | 0 mm | 1.34 m/s, 194° | 21 W/m² | - |
| 1778026497 | 26.11° C | 88% | 1004.7 hPa | 0 mm | 0.89 m/s, 198° | 18 W/m² | - |
| 1778026197 | 26.11° C | 88% | 1004.7 hPa | 0 mm | 1.34 m/s, 184° | 19 W/m² | - |
| 1778025897 | 26.11° C | 88% | 1004.7 hPa | 0 mm | 0.89 m/s, 187° | 28 W/m² | - |
| 1778025597 | 26.11° C | 88% | 1004.7 hPa | 0 mm | 0.89 m/s, 193° | 40 W/m² | - |
| 1778025297 | 26.11° C | 88% | 1004.7 hPa | 0 mm | 0.89 m/s, 194° | 70 W/m² | - |
| 1778024997 | 26.11° C | 88% | 1004.7 hPa | 0 mm | 0.89 m/s, 163° | 53 W/m² | - |
| 1778024697 | 26.11° C | 88% | 1004.7 hPa | 0 mm | 0.89 m/s, 163° | 49 W/m² | - |
| 1778024397 | 26.11° C | 88% | 1004.8 hPa | 0 mm | 0.89 m/s, 141° | 39 W/m² | - |
| 1778024097 | 26.11° C | 87% | 1004.8 hPa | 0 mm | 0.89 m/s, 141° | 51 W/m² | - |
| 1778023797 | 26.67° C | 88% | 1004.8 hPa | 0 mm | 0.89 m/s, 136° | 62 W/m² | - |
* Rain latest hour (hover to see other rain measurements)
** Current wind speed in m/s (hover to see current wind gust speed)